Terminal Aerodrome Forecast
Issued by NWS

Home | Current Version | Previous Version | Graphics & Text | Print | Product List | Glossary On
Versions: 1 2 3 4 5 6 7 8 9 10 11 12 13 14 15 16 17 18 19 20 21 22 23 24 25
809
FTUS41 KCLE 251723
TAFFDY
TAF
KFDY 251723Z 2518/2618 06011KT P6SM SCT050 BKN150
      TEMPO 2522/2602 5SM HZ
     FM260200 08008KT 5SM BR VCSH SCT020 BKN080
     FM261600 10006KT 4SM -SHRA BR BKN018 OVC035=

USA.gov is the U.S. government's official web portal to all federal, state and local government web resources and services.